Terminal Aerodrome Forecast
Issued by NWS

Home | Current Version | Previous Version | Text Only | Print | Product List | Glossary On
Versions: 1 2 3 4 5 6 7 8 9 10 11 12 13 14 15 16
000
FTPA31 PHFO 211735
TAFHJR
TAF
PHJR 211735Z 2118/2218 07006KT P6SM FEW025 SCT045
     FM212100 07009G15KT P6SM FEW025 SCT045
     FM220600 07006KT P6SM FEW025 SCT045=

USA.gov is the U.S. government's official web portal to all federal, state and local government web resources and services.